Tropical Cyclones
[Index]
Main Index Home Page Stock Weather Photos Extreme Storms Discussion Storm News and Storm Chasing Reports Tropical Cyclones / Hurricanes / Typhoons Weather Data and Links Wild Fires / Bushfires Weather Observation Techniques Weather Picture Catalogue Tornado Pictures and Reports Stock Video Footage and DVDs for sale
Season 1987-1988 Tropical Cyclone GWENDA Track Map
Season 1987-1988 Summaries: [BoM-AU] [JTWC-AU] [JTWC-SIO] [JTWC-SPAC] [JTWC-SH]
<<- Previous TC | BoM 1987-1988 Season | Next TC ->>

click for intensity scale information  Lat/long Grid: Show Hide

 Date Labels: Show Hide

Bureau of Meteorology Tropical Cyclone Data

Name: GWENDA
Number: 704 / 198788_03

06 Feb 1988 00:00 UTC to 12 Feb 1988 00:00 UTC

    date/time    lat    long    hPa   cat  kts
1988-02-06 00   12.8   109.0   1004                     
1988-02-06 06   13.2   108.2   1002                     
1988-02-06 12   13.5   107.5   1001                     
1988-02-06 18   13.8   107.0    999                     
1988-02-07 00   14.1   106.3    998                     
1988-02-07 06   14.9   105.3    995    1                
1988-02-07 12   15.4   104.5    992    1                
1988-02-07 18   15.8   103.5    988    1                
1988-02-08 00   16.0   102.7    984    2                
1988-02-08 06   16.0   101.9    984    2                
1988-02-08 12   16.0   101.2    984    2                
1988-02-08 18   16.0   100.3    984    2                
1988-02-09 00   16.0    99.2    984    2                
1988-02-09 06   15.9    98.0    983    2                
1988-02-09 12   15.9    96.8    982    2                
1988-02-09 18   15.9    95.8    979    2                
1988-02-10 00   15.8    95.0    976    2                
1988-02-10 06   15.8    94.3    966    3                
1988-02-10 12   15.7    93.4    958    3                
1988-02-10 18   15.7    92.5    953    4                
1988-02-11 00   15.8    91.7    950    4                
1988-02-11 06   16.1    91.1    947    4                
1988-02-11 12   16.5    90.7    945    4                
1988-02-11 18   16.8    90.3    943    4                
1988-02-12 00   17.1    90.0    941    4                
Winds are 10-min average.

Tropical cyclone tracks developed by Michael Bath using data from the Bureau of Meteorology and Google Maps.


[Australian Severe Weather index] [Copyright Notice] [Email Contacts] [Search This Site] [Privacy Policy]
Document: tropical_cyclone_gwenda.htm Updated: 30 May 2013